createdAt,value
2018-10-05T00:00:24.728Z,101887.58
2018-10-05T00:01:30.275Z,101891.86
2018-10-05T00:02:35.770Z,101889.29
2018-10-05T00:03:41.265Z,101887.25
2018-10-05T00:04:46.742Z,101891.11
2018-10-05T00:05:52.586Z,101889.02
2018-10-05T00:06:58.108Z,101886.45
2018-10-05T00:10:12.394Z,101889.47
2018-10-05T00:11:17.902Z,101889.88
2018-10-05T00:12:23.483Z,101888.20
2018-10-05T00:13:29.009Z,101888.56
2018-10-05T00:14:34.455Z,101892.91
2018-10-05T00:15:40.193Z,101886.02
2018-10-05T00:16:45.641Z,101883.91
2018-10-05T00:17:51.306Z,101889.05
2018-10-05T00:18:56.701Z,101882.64
2018-10-05T00:20:02.140Z,101886.92
2018-10-05T00:21:07.891Z,101884.37
2018-10-05T00:22:13.385Z,101884.39
2018-10-05T00:23:18.841Z,101885.27
2018-10-05T00:24:24.382Z,101885.68
2018-10-05T00:25:29.889Z,101886.95
2018-10-05T00:26:35.321Z,101883.12
2018-10-05T00:27:41.197Z,101881.95
2018-10-05T00:28:46.677Z,101878.55
2018-10-05T00:29:52.201Z,101875.98
2018-10-05T00:30:57.633Z,101876.80
2018-10-05T00:32:03.096Z,101875.58
2018-10-05T00:33:08.714Z,101880.25
2018-10-05T00:34:14.152Z,101879.38
2018-10-05T00:35:19.688Z,101873.41
2018-10-05T00:36:25.146Z,101875.58
2018-10-05T00:37:30.684Z,101868.30
2018-10-05T00:38:36.243Z,101865.84
2018-10-05T00:39:42.243Z,101869.69
2018-10-05T00:40:47.741Z,101869.23
2018-10-05T00:41:53.422Z,101862.00
2018-10-05T00:42:58.914Z,101863.69
2018-10-05T00:44:04.485Z,101856.84
2018-10-05T00:45:10.061Z,101864.09
2018-10-05T00:46:15.620Z,101859.84
2018-10-05T00:47:21.225Z,101857.30
2018-10-05T00:48:26.719Z,101856.45
2018-10-05T00:49:32.271Z,101854.23
2018-10-05T00:50:37.881Z,101852.19
2018-10-05T00:51:43.584Z,101847.94
2018-10-05T00:52:49.146Z,101844.92
2018-10-05T00:53:54.588Z,101851.73
2018-10-05T00:55:00.115Z,101856.47
2018-10-05T00:56:05.607Z,101855.18
2018-10-05T00:57:11.049Z,101849.61
2018-10-05T00:58:16.557Z,101849.69
2018-10-05T00:59:22.191Z,101847.95
2018-10-05T01:00:27.739Z,101847.88
2018-10-05T01:01:33.344Z,101847.39
2018-10-05T01:02:38.869Z,101848.73
2018-10-05T01:03:44.406Z,101843.16
2018-10-05T01:04:49.908Z,101844.90
2018-10-05T01:05:55.429Z,101849.59
2018-10-05T01:07:00.866Z,101843.14
2018-10-05T01:08:06.345Z,101844.02
2018-10-05T01:09:11.818Z,101843.17
2018-10-05T01:10:17.316Z,101842.73
2018-10-05T01:11:22.948Z,101839.36
2018-10-05T01:12:28.390Z,101830.89
2018-10-05T01:13:33.879Z,101835.15
2018-10-05T01:14:39.329Z,101837.72
2018-10-05T01:15:44.850Z,101837.72
2018-10-05T01:16:50.377Z,101829.59
2018-10-05T01:17:55.992Z,101835.19
2018-10-05T01:19:01.471Z,101833.45
2018-10-05T01:20:06.989Z,101836.03
2018-10-05T01:21:12.504Z,101835.58
2018-10-05T01:22:18.019Z,101832.58
2018-10-05T01:23:23.525Z,101834.30
2018-10-05T01:24:29.036Z,101833.39
2018-10-05T01:25:34.524Z,101833.84
2018-10-05T01:26:40.026Z,101827.88
2018-10-05T01:27:45.494Z,101826.61
2018-10-05T01:28:50.995Z,101827.90
2018-10-05T01:29:56.707Z,101826.24
2018-10-05T01:31:02.303Z,101826.69
2018-10-05T01:32:08.014Z,101826.22
2018-10-05T01:33:13.468Z,101825.81
2018-10-05T01:34:19.018Z,101825.86
2018-10-05T01:35:24.553Z,101821.23
2018-10-05T01:36:30.090Z,101822.06
2018-10-05T01:37:35.626Z,101818.66
2018-10-05T01:38:41.210Z,101819.09
2018-10-05T01:39:46.705Z,101815.66
2018-10-05T01:40:52.306Z,101809.66
2018-10-05T01:41:57.803Z,101810.59
2018-10-05T01:43:03.357Z,101813.14
2018-10-05T01:44:08.957Z,101810.14
2018-10-05T01:45:14.397Z,101809.70
2018-10-05T01:46:19.942Z,101810.13
2018-10-05T01:47:25.518Z,101807.14
2018-10-05T01:48:31.091Z,101804.19
2018-10-05T01:49:36.661Z,101803.30
2018-10-05T01:50:42.165Z,101807.59
2018-10-05T01:51:47.597Z,101806.37
2018-10-05T01:52:53.219Z,101804.22
2018-10-05T01:53:58.658Z,101800.81
2018-10-05T01:55:04.246Z,101802.94
2018-10-05T01:56:09.845Z,101807.20
2018-10-05T01:57:15.348Z,101799.05
2018-10-05T01:58:20.847Z,101802.47
2018-10-05T01:59:26.293Z,101801.17
2018-10-05T02:00:31.784Z,101797.39
2018-10-05T02:01:37.471Z,101796.50
2018-10-05T02:02:43.049Z,101799.91
2018-10-05T02:03:48.461Z,101795.20
2018-10-05T02:04:53.917Z,101796.92
2018-10-05T02:05:59.745Z,101796.13
2018-10-05T02:07:05.351Z,101791.84
2018-10-05T02:08:10.811Z,101793.13
2018-10-05T02:09:16.307Z,101794.84
2018-10-05T02:10:21.827Z,101788.03
2018-10-05T02:11:27.433Z,101785.47
2018-10-05T02:12:33.105Z,101785.48
2018-10-05T02:13:38.529Z,101782.08
2018-10-05T02:14:44.061Z,101784.67
2018-10-05T02:15:49.644Z,101780.82
2018-10-05T02:16:55.159Z,101782.94
2018-10-05T02:18:00.720Z,101783.00
2018-10-05T02:19:06.388Z,101777.07
2018-10-05T02:20:11.882Z,101775.38
2018-10-05T02:21:17.527Z,101777.10
2018-10-05T02:22:22.988Z,101776.70
2018-10-05T02:23:28.458Z,101775.81
2018-10-05T02:24:33.987Z,101771.56
2018-10-05T02:25:39.418Z,101771.52
2018-10-05T02:26:44.858Z,101766.38
2018-10-05T02:27:50.300Z,101769.39
2018-10-05T02:28:55.857Z,101766.02
2018-10-05T02:30:01.318Z,101766.45
2018-10-05T02:31:06.938Z,101762.17
2018-10-05T02:32:12.506Z,101758.39
2018-10-05T02:33:17.950Z,101758.39
2018-10-05T02:34:23.493Z,101762.17
2018-10-05T02:35:29.061Z,101758.31
2018-10-05T02:36:34.589Z,101758.31
2018-10-05T02:37:40.027Z,101762.17
2018-10-05T02:38:45.480Z,101758.38
2018-10-05T02:39:50.964Z,101763.08
2018-10-05T02:40:56.469Z,101760.50
2018-10-05T02:42:01.958Z,101765.30
2018-10-05T02:43:07.511Z,101765.27
2018-10-05T02:44:12.966Z,101766.56
2018-10-05T02:45:18.472Z,101767.00
2018-10-05T02:46:23.886Z,101766.59
2018-10-05T02:47:29.402Z,101767.52
2018-10-05T02:48:35.094Z,101766.69
2018-10-05T02:49:40.591Z,101766.67
2018-10-05T02:50:46.124Z,101763.28
2018-10-05T02:51:51.628Z,101766.67
2018-10-05T02:52:57.090Z,101768.80
2018-10-05T02:54:02.624Z,101773.91
2018-10-05T02:55:08.210Z,101764.12
2018-10-05T02:56:13.774Z,101761.17
2018-10-05T02:57:19.301Z,101763.29
2018-10-05T02:58:24.926Z,101758.17
2018-10-05T02:59:30.442Z,101754.76
2018-10-05T03:00:52.638Z,101753.02
2018-10-05T03:02:29.085Z,101750.07
2018-10-05T03:03:34.523Z,101757.34
2018-10-05T03:04:40.001Z,101753.09
2018-10-05T03:05:45.558Z,101754.77
2018-10-05T03:06:51.070Z,101750.07
2018-10-05T03:07:56.567Z,101747.05
2018-10-05T03:09:01.971Z,101749.62
2018-10-05T03:10:07.510Z,101746.19
2018-10-05T03:11:13.425Z,101748.78
2018-10-05T03:12:18.981Z,101751.74
2018-10-05T03:13:24.584Z,101745.77
2018-10-05T03:14:30.141Z,101747.88
2018-10-05T03:15:35.816Z,101737.19
2018-10-05T03:16:41.233Z,101738.03
2018-10-05T03:17:46.756Z,101737.19
2018-10-05T03:18:52.451Z,101743.20
2018-10-05T03:19:57.988Z,101739.36
2018-10-05T03:21:03.792Z,101731.66
2018-10-05T03:22:09.305Z,101735.91
2018-10-05T03:23:14.777Z,101737.19
2018-10-05T03:24:20.261Z,101729.50
2018-10-05T03:25:25.752Z,101736.34
2018-10-05T03:26:31.274Z,101734.63
2018-10-05T03:27:36.845Z,101732.90
2018-10-05T03:28:42.285Z,101734.17
2018-10-05T03:29:47.766Z,101735.91
2018-10-05T03:30:53.312Z,101732.07
2018-10-05T03:31:59.699Z,101731.69
2018-10-05T03:33:05.337Z,101726.94
2018-10-05T03:34:13.527Z,101727.38
2018-10-05T03:35:19.345Z,101725.27
2018-10-05T03:36:24.884Z,101723.55
2018-10-05T03:37:30.661Z,101724.44
2018-10-05T03:38:36.163Z,101718.48
2018-10-05T03:39:41.711Z,101714.22
2018-10-05T03:40:47.154Z,101712.91
2018-10-05T03:41:52.770Z,101714.20
2018-10-05T03:42:58.339Z,101711.64
2018-10-05T03:44:03.944Z,101706.08
2018-10-05T03:45:09.683Z,101711.63
2018-10-05T03:46:15.181Z,101704.39
2018-10-05T03:47:20.788Z,101705.66
2018-10-05T03:48:26.272Z,101702.69
2018-10-05T03:49:31.679Z,101705.31
2018-10-05T03:50:37.206Z,101701.03
2018-10-05T03:51:42.664Z,101703.20
2018-10-05T03:52:48.222Z,101698.02
2018-10-05T03:53:53.685Z,101698.93
2018-10-05T03:54:59.189Z,101698.02
2018-10-05T03:56:05.009Z,101695.06
2018-10-05T03:57:10.495Z,101690.79
2018-10-05T03:58:15.986Z,101694.23
2018-10-05T03:59:21.553Z,101695.97
2018-10-05T04:00:27.013Z,101698.11
2018-10-05T04:01:32.553Z,101696.84
2018-10-05T04:02:37.954Z,101697.27
2018-10-05T04:03:43.557Z,101697.73
2018-10-05T04:04:49.051Z,101693.05
2018-10-05T04:05:54.562Z,101693.91
2018-10-05T04:07:00.069Z,101701.20
2018-10-05T04:08:05.610Z,101697.81
2018-10-05T04:09:11.666Z,101699.11
2018-10-05T04:10:17.097Z,101698.67
2018-10-05T04:11:22.626Z,101693.59
2018-10-05T04:12:28.096Z,101694.88
2018-10-05T04:13:33.560Z,101695.29
2018-10-05T04:14:39.201Z,101692.31
2018-10-05T04:15:44.649Z,101693.17
2018-10-05T04:16:50.172Z,101691.89
2018-10-05T04:17:55.643Z,101691.08
2018-10-05T04:19:01.183Z,101686.83
2018-10-05T04:20:06.656Z,101691.95
2018-10-05T04:21:12.153Z,101692.36
2018-10-05T04:22:21.232Z,101686.83
2018-10-05T04:23:26.749Z,101690.23
2018-10-05T04:24:32.168Z,101684.67
2018-10-05T04:25:37.714Z,101689.38
2018-10-05T04:26:43.168Z,101684.28
2018-10-05T04:27:48.688Z,101688.14
2018-10-05T04:28:54.326Z,101690.75
2018-10-05T04:29:59.861Z,101690.77
2018-10-05T04:31:05.453Z,101688.20
2018-10-05T04:32:10.902Z,101688.60
2018-10-05T04:33:16.418Z,101689.48
2018-10-05T04:34:22.009Z,101686.09
2018-10-05T04:35:27.584Z,101688.22
2018-10-05T04:36:32.990Z,101682.25
2018-10-05T04:37:38.423Z,101680.98
2018-10-05T04:38:43.938Z,101686.99
2018-10-05T04:39:49.498Z,101687.41
2018-10-05T04:40:55.022Z,101681.88
2018-10-05T04:42:00.505Z,101683.60
2018-10-05T04:43:06.297Z,101679.78
2018-10-05T04:44:11.829Z,101684.89
2018-10-05T04:45:17.322Z,101687.86
2018-10-05T04:46:22.794Z,101678.94
2018-10-05T04:47:28.266Z,101680.63
2018-10-05T04:48:33.908Z,101689.58
2018-10-05T04:49:39.517Z,101682.37
2018-10-05T04:50:44.937Z,101681.13
2018-10-05T04:51:50.636Z,101677.67
2018-10-05T04:52:56.079Z,101681.52
2018-10-05T04:54:01.503Z,101675.11
2018-10-05T04:55:07.262Z,101679.39
2018-10-05T04:56:12.699Z,101685.35
2018-10-05T04:57:18.253Z,101679.84
2018-10-05T04:58:23.740Z,101680.26
2018-10-05T04:59:29.206Z,101679.03
2018-10-05T05:00:34.668Z,101678.59
2018-10-05T05:01:40.097Z,101681.16
2018-10-05T05:02:45.562Z,101681.61
2018-10-05T05:03:51.092Z,101680.38
2018-10-05T05:04:56.609Z,101681.66
2018-10-05T05:06:02.170Z,101675.70
2018-10-05T05:07:08.691Z,101682.55
2018-10-05T05:08:14.200Z,101681.72
2018-10-05T05:09:19.696Z,101678.71
2018-10-05T05:10:25.232Z,101674.88
2018-10-05T05:11:30.665Z,101675.27
2018-10-05T05:12:36.168Z,101677.43
2018-10-05T05:13:41.619Z,101675.27
2018-10-05T05:14:47.111Z,101672.70
2018-10-05T05:15:52.757Z,101673.14
2018-10-05T05:16:58.636Z,101673.98
2018-10-05T05:18:04.113Z,101666.36
2018-10-05T05:19:09.535Z,101669.33
2018-10-05T05:20:15.168Z,101672.33
2018-10-05T05:21:20.737Z,101674.50
2018-10-05T05:22:26.256Z,101671.48
2018-10-05T05:23:31.778Z,101664.25
2018-10-05T05:24:37.273Z,101665.52
2018-10-05T05:25:42.788Z,101668.07
2018-10-05T05:26:48.266Z,101664.26
2018-10-05T05:27:53.829Z,101665.94
2018-10-05T05:28:59.260Z,101661.66
2018-10-05T05:30:04.854Z,101660.81
2018-10-05T05:31:10.514Z,101661.67
2018-10-05T05:32:16.009Z,101662.98
2018-10-05T05:33:21.521Z,101664.66
2018-10-05T05:34:26.944Z,101662.92
2018-10-05T05:35:32.377Z,101663.36
2018-10-05T05:36:38.026Z,101671.86
2018-10-05T05:37:43.522Z,101670.53
2018-10-05T05:38:49.053Z,101676.11
2018-10-05T05:39:54.554Z,101674.88
2018-10-05T05:41:00.124Z,101668.92
2018-10-05T05:42:05.669Z,101675.27
2018-10-05T05:43:11.193Z,101674.82
2018-10-05T05:44:16.729Z,101674.42
2018-10-05T05:45:22.239Z,101671.42
2018-10-05T05:46:27.688Z,101678.26
2018-10-05T05:47:33.141Z,101676.55
2018-10-05T05:48:38.742Z,101680.83
2018-10-05T05:49:44.262Z,101679.55
2018-10-05T05:50:49.788Z,101673.15
2018-10-05T05:51:55.213Z,101681.23
2018-10-05T05:53:00.637Z,101680.39
2018-10-05T05:54:06.211Z,101674.83
2018-10-05T05:55:11.662Z,101682.51
2018-10-05T05:56:17.170Z,101675.66
2018-10-05T05:57:22.733Z,101680.38
2018-10-05T05:58:28.161Z,101680.39
2018-10-05T05:59:33.718Z,101683.80
2018-10-05T06:00:39.289Z,101685.51
2018-10-05T06:01:44.769Z,101679.55
2018-10-05T06:02:50.237Z,101682.94
2018-10-05T06:03:55.811Z,101678.66
2018-10-05T06:05:01.338Z,101683.34
2018-10-05T06:06:06.850Z,101675.66
2018-10-05T06:07:12.308Z,101680.32
2018-10-05T06:08:18.275Z,101679.05
2018-10-05T06:09:23.815Z,101672.26
2018-10-05T06:10:29.357Z,101674.44
2018-10-05T06:11:34.896Z,101679.10
2018-10-05T06:12:40.346Z,101679.94
2018-10-05T06:13:45.807Z,101677.81
2018-10-05T06:14:51.437Z,101672.69
2018-10-05T06:15:57.831Z,101668.41
2018-10-05T06:17:03.457Z,101671.81
2018-10-05T06:18:08.924Z,101669.23
2018-10-05T06:19:14.596Z,101670.92
2018-10-05T06:20:20.159Z,101670.95
2018-10-05T06:21:25.629Z,101671.74
2018-10-05T06:22:31.241Z,101676.42
2018-10-05T06:23:36.679Z,101678.59
2018-10-05T06:24:42.226Z,101678.59
2018-10-05T06:25:48.032Z,101679.94
2018-10-05T06:26:53.541Z,101679.94
2018-10-05T06:27:59.029Z,101678.64
2018-10-05T06:29:04.563Z,101681.59
2018-10-05T06:30:10.046Z,101680.71
2018-10-05T06:31:15.839Z,101680.32
2018-10-05T06:32:21.300Z,101688.05
2018-10-05T06:33:26.786Z,101679.92
2018-10-05T06:34:32.260Z,101683.27
2018-10-05T06:35:37.693Z,101680.69
2018-10-05T06:36:43.154Z,101681.95
2018-10-05T06:38:51.809Z,101685.80
2018-10-05T06:39:57.588Z,101680.63
2018-10-05T06:41:03.085Z,101681.51
2018-10-05T06:42:08.595Z,101684.02
2018-10-05T06:43:14.023Z,101681.00
2018-10-05T06:44:19.689Z,101677.58
2018-10-05T06:45:25.305Z,101678.81
2018-10-05T06:46:30.731Z,101683.47
2018-10-05T06:47:36.173Z,101683.45
2018-10-05T06:48:41.637Z,101681.27
2018-10-05T06:49:47.166Z,101679.53
2018-10-05T06:50:52.688Z,101685.48
2018-10-05T06:51:59.008Z,101690.53
2018-10-05T06:53:04.628Z,101684.10
2018-10-05T06:54:10.232Z,101684.47
2018-10-05T06:55:15.715Z,101682.29
2018-10-05T06:56:21.347Z,101684.83
2018-10-05T06:57:26.773Z,101679.22
2018-10-05T06:58:32.471Z,101684.75
2018-10-05T06:59:38.102Z,101685.09
2018-10-05T07:00:43.623Z,101676.93
2018-10-05T07:01:49.253Z,101682.42
2018-10-05T07:02:54.693Z,101679.84
2018-10-05T07:04:00.369Z,101682.77
2018-10-05T07:05:06.078Z,101679.33
2018-10-05T07:06:11.624Z,101674.56
2018-10-05T07:07:17.151Z,101674.10
2018-10-05T07:08:22.798Z,101673.27
2018-10-05T07:09:28.253Z,101676.19
2018-10-05T07:10:34.171Z,101683.77
2018-10-05T07:11:39.723Z,101682.39
2018-10-05T07:12:45.481Z,101675.13
2018-10-05T07:13:50.963Z,101681.09
2018-10-05T07:14:56.448Z,101679.36
2018-10-05T07:16:02.030Z,101682.66
2018-10-05T07:17:07.700Z,101680.03
2018-10-05T07:18:13.006Z,101681.65
2018-10-05T07:19:18.494Z,101678.17
2018-10-05T07:20:23.952Z,101677.37
2018-10-05T07:21:29.581Z,101669.35
2018-10-05T07:22:35.096Z,101675.31
2018-10-05T07:23:40.496Z,101670.59
2018-10-05T07:24:46.017Z,101665.78
2018-10-05T07:25:51.589Z,101669.06
2018-10-05T07:26:57.064Z,101660.41
2018-10-05T07:28:02.491Z,101665.05
2018-10-05T07:29:08.066Z,101665.53
2018-10-05T07:30:13.601Z,101664.55
2018-10-05T07:31:19.143Z,101661.52
2018-10-05T07:32:24.855Z,101654.13
2018-10-05T07:33:30.325Z,101658.37
2018-10-05T07:34:35.796Z,101654.44
2018-10-05T07:35:41.268Z,101658.65
2018-10-05T07:36:46.978Z,101655.61
2018-10-05T07:37:52.625Z,101662.00
2018-10-05T07:38:58.109Z,101656.02
2018-10-05T07:40:03.542Z,101661.87
2018-10-05T07:41:09.235Z,101658.48
2018-10-05T07:42:14.704Z,101665.70
2018-10-05T07:43:20.686Z,101658.98
2018-10-05T07:44:26.139Z,101656.86
2018-10-05T07:45:31.581Z,101662.11
2018-10-05T07:46:37.072Z,101661.25
2018-10-05T07:47:42.540Z,101659.91
2018-10-05T07:48:48.063Z,101662.29
2018-10-05T07:49:53.573Z,101658.34
2018-10-05T07:50:59.059Z,101660.07
2018-10-05T07:52:04.757Z,101657.86
2018-10-05T07:53:10.244Z,101658.26
2018-10-05T07:54:15.822Z,101653.59
2018-10-05T07:55:21.440Z,101656.87
2018-10-05T07:56:26.960Z,101658.08
2018-10-05T07:57:32.471Z,101657.57
2018-10-05T07:58:37.887Z,101654.41
2018-10-05T07:59:43.453Z,101657.23
2018-10-05T08:00:48.900Z,101661.00
2018-10-05T08:01:54.404Z,101652.84
2018-10-05T08:02:59.997Z,101659.17
2018-10-05T08:04:05.621Z,101660.78
2018-10-05T08:05:11.089Z,101658.50
2018-10-05T08:06:16.636Z,101658.95
2018-10-05T08:07:22.091Z,101654.98
2018-10-05T08:08:27.593Z,101655.52
2018-10-05T08:09:33.045Z,101655.90
2018-10-05T08:10:38.584Z,101653.67
2018-10-05T08:11:44.155Z,101659.18
2018-10-05T08:12:49.601Z,101664.98
2018-10-05T08:13:55.125Z,101663.14
2018-10-05T08:15:00.547Z,101667.34
2018-10-05T08:16:06.046Z,101667.23
2018-10-05T08:17:11.538Z,101667.52
2018-10-05T08:18:17.078Z,101669.11
2018-10-05T08:19:22.582Z,101667.05
2018-10-05T08:20:28.076Z,101672.14
2018-10-05T08:21:33.654Z,101665.23
2018-10-05T08:22:39.074Z,101667.13
2018-10-05T08:23:44.552Z,101669.47
2018-10-05T08:24:50.010Z,101671.16
2018-10-05T08:25:55.561Z,101667.77
2018-10-05T08:27:01.216Z,101671.23
2018-10-05T08:28:06.690Z,101670.62
2018-10-05T08:29:12.146Z,101665.77
2018-10-05T08:30:17.652Z,101665.55
2018-10-05T08:31:23.274Z,101664.56
2018-10-05T08:32:28.716Z,101660.16
2018-10-05T08:33:34.210Z,101660.48
2018-10-05T08:34:39.769Z,101651.73
2018-10-05T08:35:45.207Z,101654.11
2018-10-05T08:36:50.716Z,101646.16
2018-10-05T08:37:56.288Z,101648.53
2018-10-05T08:39:01.913Z,101650.46
2018-10-05T08:40:08.849Z,101650.74
2018-10-05T08:41:14.284Z,101643.74
2018-10-05T08:42:19.836Z,101643.16
2018-10-05T08:43:25.301Z,101648.31
2018-10-05T08:44:30.843Z,101648.23
2018-10-05T08:45:36.311Z,101647.20
2018-10-05T08:46:42.009Z,101649.14
2018-10-05T08:47:47.528Z,101643.28
2018-10-05T08:48:52.984Z,101638.66
2018-10-05T08:49:58.557Z,101644.77
2018-10-05T08:51:04.158Z,101643.15
2018-10-05T08:52:09.803Z,101644.78
2018-10-05T08:53:15.161Z,101647.94
2018-10-05T08:54:20.641Z,101649.38
2018-10-05T08:55:26.154Z,101648.09
2018-10-05T08:56:31.560Z,101647.25
2018-10-05T08:57:37.034Z,101645.20
2018-10-05T08:58:42.444Z,101641.80
2018-10-05T08:59:47.961Z,101638.45
2018-10-05T09:00:53.592Z,101639.63
2018-10-05T09:01:59.145Z,101640.41
2018-10-05T09:03:04.671Z,101635.41
2018-10-05T09:04:10.092Z,101637.70
2018-10-05T09:05:15.750Z,101630.81
2018-10-05T09:06:21.277Z,101627.41
2018-10-05T09:07:26.858Z,101626.59
2018-10-05T09:08:32.294Z,101620.78
2018-10-05T09:09:37.735Z,101622.67
2018-10-05T09:10:43.214Z,101621.83
2018-10-05T09:11:48.634Z,101619.38
2018-10-05T09:12:54.164Z,101613.91
2018-10-05T09:13:59.700Z,101610.31
2018-10-05T09:15:05.212Z,101604.47
2018-10-05T09:16:10.983Z,101612.54
2018-10-05T09:17:16.527Z,101609.32
2018-10-05T09:18:22.052Z,101613.61
2018-10-05T09:19:27.597Z,101605.62
2018-10-05T09:20:33.080Z,101606.45
2018-10-05T09:21:38.631Z,101607.01
2018-10-05T09:22:44.094Z,101598.88
2018-10-05T09:23:49.684Z,101604.94
2018-10-05T09:24:55.573Z,101602.72
2018-10-05T09:26:01.181Z,101597.03
2018-10-05T09:27:06.680Z,101602.34
2018-10-05T09:28:12.301Z,101601.60
2018-10-05T09:29:17.796Z,101596.56
2018-10-05T09:30:23.294Z,101605.39
2018-10-05T09:31:28.721Z,101604.42
2018-10-05T09:32:34.124Z,101602.80
2018-10-05T09:33:39.638Z,101599.47
2018-10-05T09:34:45.090Z,101599.80
2018-10-05T09:35:51.474Z,101598.56
2018-10-05T09:36:57.035Z,101599.98
2018-10-05T09:38:02.506Z,101597.27
2018-10-05T09:39:08.892Z,101591.89
2018-10-05T09:40:14.466Z,101591.20
2018-10-05T09:41:19.948Z,101595.03
2018-10-05T09:42:25.520Z,101594.80
2018-10-05T09:43:31.020Z,101592.20
2018-10-05T09:44:36.509Z,101590.30
2018-10-05T09:45:42.028Z,101586.83
2018-10-05T09:46:47.784Z,101586.05
2018-10-05T09:47:53.260Z,101583.27
2018-10-05T09:48:58.789Z,101589.74
2018-10-05T09:50:04.288Z,101591.72
2018-10-05T09:51:09.863Z,101589.30
2018-10-05T09:52:15.374Z,101585.87
2018-10-05T09:53:20.956Z,101589.02
2018-10-05T09:54:26.432Z,101578.45
2018-10-05T09:55:31.852Z,101581.99
2018-10-05T09:56:37.393Z,101579.19
2018-10-05T09:57:42.845Z,101577.13
2018-10-05T09:58:48.340Z,101573.86
2018-10-05T09:59:54.086Z,101572.05
2018-10-05T10:01:04.792Z,101574.34
2018-10-05T10:02:15.680Z,101564.60
2018-10-05T10:03:26.322Z,101561.74
2018-10-05T10:04:31.836Z,101562.36
2018-10-05T10:05:37.433Z,101559.86
2018-10-05T10:06:42.865Z,101559.50
2018-10-05T10:07:48.373Z,101557.16
2018-10-05T10:08:54.123Z,101555.81
2018-10-05T10:09:59.675Z,101553.42
2018-10-05T10:11:05.232Z,101551.49
2018-10-05T10:12:10.684Z,101554.28
2018-10-05T10:13:16.110Z,101550.48
2018-10-05T10:14:21.781Z,101542.31
2018-10-05T10:15:27.312Z,101543.72
2018-10-05T10:16:32.816Z,101548.57
2018-10-05T10:17:38.449Z,101547.34
2018-10-05T10:18:43.978Z,101553.91
2018-10-05T10:19:49.519Z,101548.50
2018-10-05T10:20:55.152Z,101551.21
2018-10-05T10:22:00.607Z,101545.37
2018-10-05T10:23:06.146Z,101548.34
2018-10-05T10:24:11.855Z,101550.69
2018-10-05T10:25:17.918Z,101551.27
2018-10-05T10:26:23.388Z,101545.96
2018-10-05T10:27:28.982Z,101539.53
2018-10-05T10:28:34.552Z,101542.31
2018-10-05T10:29:39.938Z,101543.67
2018-10-05T10:30:45.337Z,101538.45
2018-10-05T10:31:51.192Z,101541.48
2018-10-05T10:32:56.673Z,101536.34
2018-10-05T10:34:02.173Z,101532.81
2018-10-05T10:35:07.637Z,101537.83
2018-10-05T10:36:13.059Z,101530.22
2018-10-05T10:37:18.512Z,101534.46
2018-10-05T10:38:23.981Z,101528.81
2018-10-05T10:39:29.533Z,101521.59
2018-10-05T10:40:35.043Z,101523.83
2018-10-05T10:41:40.501Z,101516.54
2018-10-05T10:42:46.048Z,101509.61
2018-10-05T10:43:51.566Z,101507.10
2018-10-05T10:44:57.207Z,101508.80
2018-10-05T10:46:02.796Z,101508.50
2018-10-05T10:47:08.338Z,101503.73
2018-10-05T10:48:13.863Z,101507.28
2018-10-05T10:49:19.285Z,101502.38
2018-10-05T10:50:24.857Z,101500.59
2018-10-05T10:51:30.285Z,101498.09
2018-10-05T10:52:35.669Z,101502.20
2018-10-05T10:53:41.168Z,101497.41
2018-10-05T10:54:46.716Z,101498.40
2018-10-05T10:55:52.225Z,101495.13
2018-10-05T10:56:57.770Z,101493.67
2018-10-05T10:58:03.207Z,101489.78
2018-10-05T10:59:08.613Z,101487.70
2018-10-05T11:00:14.573Z,101484.72
2018-10-05T11:01:20.109Z,101483.29
2018-10-05T11:02:25.556Z,101483.96
2018-10-05T11:03:31.016Z,101481.62
2018-10-05T11:04:36.610Z,101477.25
2018-10-05T11:05:42.066Z,101481.92
2018-10-05T11:06:47.662Z,101480.66
2018-10-05T11:07:53.142Z,101472.17
2018-10-05T11:08:58.593Z,101478.20
2018-10-05T11:10:04.182Z,101470.62
2018-10-05T11:11:09.762Z,101474.52
2018-10-05T11:12:15.278Z,101473.62
2018-10-05T11:13:20.863Z,101466.32
2018-10-05T11:14:26.690Z,101464.58
2018-10-05T11:15:32.161Z,101465.77
2018-10-05T11:16:37.854Z,101466.05
2018-10-05T11:17:43.262Z,101466.45
2018-10-05T11:18:48.675Z,101464.73
2018-10-05T11:19:54.324Z,101461.44
2018-10-05T11:20:59.776Z,101459.91
2018-10-05T11:22:05.282Z,101459.23
2018-10-05T11:23:10.911Z,101454.88
2018-10-05T11:24:16.356Z,101456.43
2018-10-05T11:25:21.992Z,101452.27
2018-10-05T11:26:27.449Z,101456.03
2018-10-05T11:27:32.908Z,101450.68
2018-10-05T11:28:38.381Z,101446.08
2018-10-05T11:29:44.154Z,101448.28
2018-10-05T11:30:49.546Z,101444.66
2018-10-05T11:31:55.001Z,101438.83
2018-10-05T11:33:00.470Z,101440.27
2018-10-05T11:34:05.934Z,101436.58
2018-10-05T11:35:11.386Z,101438.22
2018-10-05T11:36:16.813Z,101430.31
2018-10-05T11:37:22.288Z,101434.14
2018-10-05T11:38:27.826Z,101431.32
2018-10-05T11:39:33.313Z,101429.44
2018-10-05T11:40:38.779Z,101426.39
2018-10-05T11:41:44.232Z,101431.77
2018-10-05T11:42:49.790Z,101425.13
2018-10-05T11:43:55.338Z,101423.04
2018-10-05T11:45:00.913Z,101430.73
2018-10-05T11:46:06.531Z,101420.36
2018-10-05T11:47:12.063Z,101417.23
2018-10-05T11:48:17.538Z,101418.50
2018-10-05T11:49:22.985Z,101417.63
2018-10-05T11:50:28.429Z,101415.27
2018-10-05T11:51:33.911Z,101413.92
2018-10-05T11:52:39.374Z,101409.81
2018-10-05T11:53:44.838Z,101414.11
2018-10-05T11:54:50.392Z,101407.96
2018-10-05T11:55:55.820Z,101402.67
2018-10-05T11:57:01.283Z,101405.16
2018-10-05T11:58:06.709Z,101404.41
2018-10-05T11:59:12.189Z,101401.48
2018-10-05T12:00:19.150Z,101401.17
2018-10-05T12:01:24.923Z,101393.95
2018-10-05T12:02:30.556Z,101390.75
2018-10-05T12:03:36.091Z,101393.91
2018-10-05T12:04:41.622Z,101392.80
2018-10-05T12:05:47.100Z,101390.39
2018-10-05T12:06:52.760Z,101391.22
2018-10-05T12:07:58.359Z,101387.66
2018-10-05T12:09:04.859Z,101381.09
2018-10-05T12:10:10.457Z,101387.75
2018-10-05T12:11:15.894Z,101379.37
2018-10-05T12:12:21.517Z,101379.31
2018-10-05T12:13:27.012Z,101379.09
2018-10-05T12:14:32.533Z,101378.12
2018-10-05T12:15:37.979Z,101379.56
2018-10-05T12:16:43.478Z,101372.57
2018-10-05T12:17:48.921Z,101369.63
2018-10-05T12:18:54.530Z,101373.91
2018-10-05T12:20:00.049Z,101371.11
2018-10-05T12:21:05.549Z,101368.95
2018-10-05T12:22:11.054Z,101365.97
2018-10-05T12:23:16.495Z,101361.70
2018-10-05T12:24:22.082Z,101367.50
2018-10-05T12:25:27.517Z,101359.67
2018-10-05T12:26:33.105Z,101361.39
2018-10-05T12:27:38.498Z,101358.41
2018-10-05T12:28:43.949Z,101356.75
2018-10-05T12:29:49.592Z,101358.26
2018-10-05T12:30:55.184Z,101354.09
2018-10-05T12:32:00.686Z,101352.23